N972HJ PHPA-PHNL
Flight info
| Callsign | N972HJ |
|---|---|
| Flight time | 0h 34m |
| Altitude | 13000 |
| Route | BOOKE BOOKE8 |
| Aircraft | B58T/L-SDFGRY/C |
Departure
| Time | 2026-04-14 06:19 |
|---|---|
| Airport | Port Allen Airport (PHPA) |
Arrival
| Time | 2026-04-14 06:54 |
|---|---|
| Airport | Daniel K. Inouye International Airport (PHNL) |
| Time | Latitude | Longitude | Altitude | Speed | Heading |
|---|---|---|---|---|---|
| 2026-04-14 06:03 | 21.89796 | -159.60022 | 17 ft | 0 kts | 192° |
| 2026-04-14 06:16 | 21.89772 | -159.60027 | 17 ft | 9 kts | 191° |
| 2026-04-14 06:16 | 21.89703 | -159.60062 | 17 ft | 13 kts | 206° |
| 2026-04-14 06:17 | 21.89651 | -159.60018 | 16 ft | 13 kts | 88° |
| 2026-04-14 06:17 | 21.89636 | -159.59982 | 16 ft | 5 kts | 289° |
| 2026-04-14 06:17 | 21.89645 | -159.59996 | 16 ft | 0 kts | 278° |
| 2026-04-14 06:18 | 21.89653 | -159.60051 | 17 ft | 39 kts | 277° |
| 2026-04-14 06:18 | 21.89738 | -159.60637 | 39 ft | 107 kts | 279° |
| 2026-04-14 06:19 | 21.89876 | -159.61491 | 283 ft | 120 kts | 279° |
| 2026-04-14 06:19 | 21.89941 | -159.62380 | 660 ft | 121 kts | 253° |
| 2026-04-14 06:19 | 21.89435 | -159.63047 | 1109 ft | 119 kts | 204° |
| 2026-04-14 06:19 | 21.88615 | -159.63310 | 1401 ft | 133 kts | 175° |
| 2026-04-14 06:20 | 21.87828 | -159.62829 | 1786 ft | 133 kts | 127° |
| 2026-04-14 06:20 | 21.87393 | -159.61935 | 2212 ft | 133 kts | 116° |
| 2026-04-14 06:20 | 21.87030 | -159.60971 | 2491 ft | 147 kts | 114° |
| 2026-04-14 06:20 | 21.86663 | -159.59909 | 2740 ft | 154 kts | 114° |
| 2026-04-14 06:21 | 21.86284 | -159.58819 | 3048 ft | 157 kts | 116° |
| 2026-04-14 06:21 | 21.85899 | -159.57712 | 3353 ft | 159 kts | 114° |
| 2026-04-14 06:21 | 21.85516 | -159.56592 | 3657 ft | 160 kts | 115° |
| 2026-04-14 06:21 | 21.85125 | -159.55465 | 3960 ft | 161 kts | 115° |
| 2026-04-14 06:22 | 21.84731 | -159.54332 | 4262 ft | 162 kts | 115° |
| 2026-04-14 06:22 | 21.84333 | -159.53192 | 4567 ft | 163 kts | 115° |
| 2026-04-14 06:22 | 21.83936 | -159.52044 | 4864 ft | 164 kts | 114° |
| 2026-04-14 06:22 | 21.83536 | -159.50891 | 5164 ft | 165 kts | 114° |
| 2026-04-14 06:23 | 21.83134 | -159.49733 | 5464 ft | 166 kts | 114° |
| 2026-04-14 06:23 | 21.82729 | -159.48572 | 5764 ft | 166 kts | 114° |
| 2026-04-14 06:23 | 21.82325 | -159.47404 | 6064 ft | 167 kts | 114° |
| 2026-04-14 06:23 | 21.82056 | -159.46629 | 6262 ft | 167 kts | 114° |
| 2026-04-14 06:24 | 21.81647 | -159.45457 | 6561 ft | 168 kts | 114° |
| 2026-04-14 06:24 | 21.81236 | -159.44280 | 6860 ft | 168 kts | 114° |
| 2026-04-14 06:24 | 21.80687 | -159.42698 | 7259 ft | 170 kts | 114° |
| 2026-04-14 06:24 | 21.80412 | -159.41910 | 7458 ft | 170 kts | 114° |
| 2026-04-14 06:25 | 21.79998 | -159.40717 | 7758 ft | 171 kts | 114° |
| 2026-04-14 06:25 | 21.79444 | -159.39131 | 8154 ft | 172 kts | 114° |
| 2026-04-14 06:25 | 21.79026 | -159.37926 | 8453 ft | 172 kts | 114° |
| 2026-04-14 06:25 | 21.78743 | -159.37114 | 8654 ft | 172 kts | 114° |
| 2026-04-14 06:26 | 21.78323 | -159.35910 | 8952 ft | 172 kts | 114° |
| 2026-04-14 06:26 | 21.77903 | -159.34703 | 9250 ft | 173 kts | 114° |
| 2026-04-14 06:26 | 21.77481 | -159.33493 | 9548 ft | 173 kts | 114° |
| 2026-04-14 06:26 | 21.77057 | -159.32281 | 9847 ft | 173 kts | 114° |
| 2026-04-14 06:27 | 21.76634 | -159.31066 | 10143 ft | 173 kts | 114° |
| 2026-04-14 06:27 | 21.76210 | -159.29849 | 10446 ft | 174 kts | 115° |
| 2026-04-14 06:27 | 21.75779 | -159.28631 | 10746 ft | 175 kts | 115° |
| 2026-04-14 06:27 | 21.75354 | -159.27399 | 11046 ft | 175 kts | 115° |
| 2026-04-14 06:28 | 21.74925 | -159.26174 | 11340 ft | 174 kts | 115° |
| 2026-04-14 06:28 | 21.74499 | -159.24954 | 11643 ft | 174 kts | 115° |
| 2026-04-14 06:28 | 21.74072 | -159.23735 | 11940 ft | 174 kts | 115° |
| 2026-04-14 06:28 | 21.73643 | -159.22508 | 12237 ft | 175 kts | 116° |
| 2026-04-14 06:29 | 21.73210 | -159.21267 | 12546 ft | 178 kts | 115° |
| 2026-04-14 06:29 | 21.72772 | -159.20015 | 12842 ft | 179 kts | 115° |
| 2026-04-14 06:29 | 21.72323 | -159.18734 | 12999 ft | 191 kts | 115° |
| 2026-04-14 06:29 | 21.71840 | -159.17350 | 13011 ft | 202 kts | 115° |
| 2026-04-14 06:30 | 21.71328 | -159.15897 | 13011 ft | 212 kts | 115° |
| 2026-04-14 06:30 | 21.70799 | -159.14391 | 13009 ft | 218 kts | 114° |
| 2026-04-14 06:30 | 21.70271 | -159.12877 | 13008 ft | 220 kts | 114° |
| 2026-04-14 06:30 | 21.69729 | -159.11330 | 13010 ft | 222 kts | 114° |
| 2026-04-14 06:31 | 21.69184 | -159.09772 | 13013 ft | 223 kts | 114° |
| 2026-04-14 06:31 | 21.68637 | -159.08211 | 13016 ft | 223 kts | 114° |
| 2026-04-14 06:31 | 21.68088 | -159.06647 | 13018 ft | 224 kts | 114° |
| 2026-04-14 06:31 | 21.67539 | -159.05081 | 13017 ft | 224 kts | 114° |
| 2026-04-14 06:32 | 21.66989 | -159.03513 | 13016 ft | 224 kts | 114° |
| 2026-04-14 06:32 | 21.66438 | -159.01945 | 13016 ft | 224 kts | 114° |
| 2026-04-14 06:32 | 21.65887 | -159.00377 | 13015 ft | 224 kts | 115° |
| 2026-04-14 06:32 | 21.65336 | -158.98808 | 13013 ft | 224 kts | 114° |
| 2026-04-14 06:33 | 21.64785 | -158.97239 | 13018 ft | 224 kts | 114° |
| 2026-04-14 06:33 | 21.64233 | -158.95670 | 13017 ft | 224 kts | 114° |
| 2026-04-14 06:33 | 21.63682 | -158.94105 | 13017 ft | 224 kts | 114° |
| 2026-04-14 06:34 | 21.62578 | -158.90967 | 13011 ft | 224 kts | 115° |
| 2026-04-14 06:34 | 21.62025 | -158.89398 | 13015 ft | 224 kts | 115° |
| 2026-04-14 06:34 | 21.61472 | -158.87820 | 13018 ft | 226 kts | 114° |
| 2026-04-14 06:34 | 21.60915 | -158.86245 | 13019 ft | 224 kts | 115° |
| 2026-04-14 06:35 | 21.60363 | -158.84677 | 13014 ft | 224 kts | 114° |
| 2026-04-14 06:35 | 21.59817 | -158.83120 | 13016 ft | 222 kts | 114° |
| 2026-04-14 06:35 | 21.59266 | -158.81564 | 13016 ft | 223 kts | 115° |
| 2026-04-14 06:35 | 21.58709 | -158.79999 | 13017 ft | 224 kts | 115° |
| 2026-04-14 06:36 | 21.58157 | -158.78428 | 13013 ft | 225 kts | 114° |
| 2026-04-14 06:36 | 21.57605 | -158.76852 | 13018 ft | 225 kts | 114° |
| 2026-04-14 06:36 | 21.57050 | -158.75279 | 13018 ft | 226 kts | 115° |
| 2026-04-14 06:36 | 21.56496 | -158.73704 | 13019 ft | 225 kts | 115° |
| 2026-04-14 06:37 | 21.55935 | -158.72130 | 13016 ft | 225 kts | 115° |
| 2026-04-14 06:37 | 21.55376 | -158.70555 | 13025 ft | 226 kts | 114° |
| 2026-04-14 06:37 | 21.54826 | -158.68982 | 12994 ft | 226 kts | 115° |
| 2026-04-14 06:37 | 21.54264 | -158.67403 | 12747 ft | 231 kts | 115° |
| 2026-04-14 06:38 | 21.53690 | -158.65789 | 12500 ft | 232 kts | 115° |
| 2026-04-14 06:38 | 21.53111 | -158.64154 | 12251 ft | 232 kts | 115° |
| 2026-04-14 06:38 | 21.52540 | -158.62539 | 12003 ft | 231 kts | 115° |
| 2026-04-14 06:38 | 21.51977 | -158.60951 | 11758 ft | 230 kts | 115° |
| 2026-04-14 06:39 | 21.51409 | -158.59348 | 11509 ft | 229 kts | 115° |
| 2026-04-14 06:39 | 21.50842 | -158.57750 | 11258 ft | 229 kts | 115° |
| 2026-04-14 06:39 | 21.50277 | -158.56157 | 11009 ft | 228 kts | 114° |
| 2026-04-14 06:39 | 21.49715 | -158.54570 | 10759 ft | 227 kts | 114° |
| 2026-04-14 06:40 | 21.49153 | -158.52989 | 10509 ft | 226 kts | 114° |
| 2026-04-14 06:40 | 21.48593 | -158.51411 | 10258 ft | 226 kts | 114° |
| 2026-04-14 06:40 | 21.48035 | -158.49839 | 10008 ft | 225 kts | 114° |
| 2026-04-14 06:40 | 21.47478 | -158.48272 | 9758 ft | 224 kts | 114° |
| 2026-04-14 06:41 | 21.46924 | -158.46715 | 9508 ft | 223 kts | 113° |
| 2026-04-14 06:41 | 21.46366 | -158.45159 | 9250 ft | 222 kts | 115° |
| 2026-04-14 06:41 | 21.45607 | -158.43737 | 9043 ft | 218 kts | 124° |
| 2026-04-14 06:41 | 21.44826 | -158.42385 | 9036 ft | 209 kts | 124° |
| 2026-04-14 06:42 | 21.44080 | -158.41072 | 9026 ft | 204 kts | 124° |
| 2026-04-14 06:42 | 21.43349 | -158.39787 | 9025 ft | 200 kts | 124° |
| 2026-04-14 06:42 | 21.42627 | -158.38520 | 9025 ft | 198 kts | 124° |
| 2026-04-14 06:42 | 21.41912 | -158.37266 | 9027 ft | 197 kts | 124° |
| 2026-04-14 06:43 | 21.41198 | -158.36014 | 9025 ft | 196 kts | 124° |
| 2026-04-14 06:43 | 21.40484 | -158.34764 | 8965 ft | 199 kts | 124° |
| 2026-04-14 06:43 | 21.39741 | -158.33464 | 8721 ft | 208 kts | 124° |
| 2026-04-14 06:43 | 21.38976 | -158.32125 | 8481 ft | 212 kts | 124° |
| 2026-04-14 06:44 | 21.38202 | -158.30767 | 8240 ft | 214 kts | 124° |
| 2026-04-14 06:44 | 21.37423 | -158.29402 | 7997 ft | 215 kts | 123° |
| 2026-04-14 06:44 | 21.36642 | -158.28035 | 7713 ft | 216 kts | 123° |
| 2026-04-14 06:44 | 21.35870 | -158.26684 | 7306 ft | 208 kts | 124° |
| 2026-04-14 06:45 | 21.35126 | -158.25379 | 6877 ft | 203 kts | 123° |
| 2026-04-14 06:45 | 21.34396 | -158.24104 | 6448 ft | 199 kts | 124° |
| 2026-04-14 06:45 | 21.33676 | -158.22847 | 6019 ft | 197 kts | 124° |
| 2026-04-14 06:45 | 21.32967 | -158.21603 | 5594 ft | 194 kts | 124° |
| 2026-04-14 06:46 | 21.31622 | -158.19251 | 4730 ft | 177 kts | 124° |
| 2026-04-14 06:46 | 21.31156 | -158.18057 | 4292 ft | 176 kts | 98° |
| 2026-04-14 06:46 | 21.31164 | -158.16757 | 3867 ft | 173 kts | 89° |
| 2026-04-14 06:47 | 21.31184 | -158.15481 | 3439 ft | 169 kts | 92° |
| 2026-04-14 06:47 | 21.31142 | -158.14237 | 3025 ft | 164 kts | 95° |
| 2026-04-14 06:47 | 21.31093 | -158.13078 | 2981 ft | 149 kts | 96° |
| 2026-04-14 06:47 | 21.30997 | -158.11989 | 2839 ft | 145 kts | 100° |
| 2026-04-14 06:48 | 21.30864 | -158.10926 | 2609 ft | 142 kts | 99° |
| 2026-04-14 06:48 | 21.30771 | -158.09905 | 2385 ft | 138 kts | 95° |
| 2026-04-14 06:48 | 21.30698 | -158.08854 | 2130 ft | 139 kts | 92° |
| 2026-04-14 06:48 | 21.30686 | -158.07842 | 1971 ft | 138 kts | 90° |
| 2026-04-14 06:49 | 21.30693 | -158.06799 | 1796 ft | 140 kts | 91° |
| 2026-04-14 06:49 | 21.30693 | -158.05769 | 1702 ft | 131 kts | 90° |
| 2026-04-14 06:49 | 21.30695 | -158.04811 | 1566 ft | 126 kts | 90° |
| 2026-04-14 06:49 | 21.30679 | -158.03878 | 1470 ft | 125 kts | 92° |
| 2026-04-14 06:50 | 21.30653 | -158.02965 | 1377 ft | 121 kts | 91° |
| 2026-04-14 06:50 | 21.30632 | -158.02060 | 1208 ft | 121 kts | 90° |
| 2026-04-14 06:50 | 21.30640 | -158.01162 | 1046 ft | 120 kts | 89° |
| 2026-04-14 06:50 | 21.30648 | -158.00319 | 912 ft | 108 kts | 89° |
| 2026-04-14 06:51 | 21.30653 | -157.99529 | 745 ft | 104 kts | 87° |
| 2026-04-14 06:51 | 21.30669 | -157.98782 | 648 ft | 97 kts | 87° |
| 2026-04-14 06:51 | 21.30685 | -157.98060 | 547 ft | 96 kts | 88° |
| 2026-04-14 06:51 | 21.30694 | -157.97342 | 495 ft | 96 kts | 89° |
| 2026-04-14 06:52 | 21.30678 | -157.96630 | 415 ft | 95 kts | 91° |
| 2026-04-14 06:52 | 21.30675 | -157.95924 | 363 ft | 95 kts | 89° |
| 2026-04-14 06:52 | 21.30677 | -157.95204 | 298 ft | 98 kts | 89° |
| 2026-04-14 06:52 | 21.30678 | -157.94475 | 240 ft | 97 kts | 91° |
| 2026-04-14 06:53 | 21.30797 | -157.93785 | 185 ft | 93 kts | 68° |
| 2026-04-14 06:53 | 21.31091 | -157.93164 | 125 ft | 93 kts | 55° |
| 2026-04-14 06:53 | 21.31476 | -157.92594 | 39 ft | 94 kts | 53° |
| 2026-04-14 06:53 | 21.31818 | -157.92110 | 18 ft | 63 kts | 53° |
| 2026-04-14 06:54 | 21.31998 | -157.91853 | 18 ft | 27 kts | 53° |
| 2026-04-14 06:54 | 21.32101 | -157.91711 | 18 ft | 22 kts | 52° |
| 2026-04-14 06:54 | 21.32183 | -157.91596 | 18 ft | 17 kts | 53° |
| 2026-04-14 06:54 | 21.32191 | -157.91499 | 18 ft | 14 kts | 145° |
| 2026-04-14 06:55 | 21.32147 | -157.91415 | 18 ft | 13 kts | 88° |
| 2026-04-14 06:55 | 21.32150 | -157.91295 | 18 ft | 15 kts | 88° |
| 2026-04-14 06:55 | 21.32162 | -157.91249 | 18 ft | 5 kts | 52° |
| 2026-04-14 06:55 | 21.32165 | -157.91244 | 18 ft | 0 kts | 53° |